Old Chatham, New York
Current Conditions -  °F | °C
As of 6:54 PM on Wednesday 22 Oct 2014 (Local Time) from KPSF Reporting Station
Haze Haze  
Wind Chill: 45°   Ceiling: 1900
Heat Index: 49°   Visibility: 6mi
Dew Point: 46°   Wind: 10mph
Humidity: 90%   Direction: 30°NNE
Pressure: 29.92"   Gusts: 20mph
Location:  42.44°N, 73.56°W
Report Text: KPSF 222254Z AUTO 03009G17KT 6SM BR SCT013 BKN019 OVC024 09/08 A2992 RMK AO2 RAB09E53 SLP125 P0000 T00940078
Loading
Personal Weather Stations






























Interactive Weather Map
Tropical Storm Tracking
New forecast layout! Learn more

10-Day Weather Forecast

Advertisements
Track Severe Weather on mobile